LiveATC.Net - Listen to live air traffic control over the Internet! Contact LiveATC.net for advertising information


ICAO: SBEG  IATA: MAO   Airport: Brigadeiro Eduardo Gomes-Manaus International Airport
City: Manaus
Country: Brazil   Continent: South America
SBEG METAR Weather: SBEG 191900Z 23002KT 9999 SCT020 FEW025TCU 28/24 Q1009
SBEG Flight Activity (FlightAware)
SBEG Twr/App/Center
Feed Status: DOWN
Last heard on: 2014-01-15 18:10:05 (94 days 1 hours 28 minutes ago)
SBEG Twr/App/Center Audio Archives
FacilityFrequency
Amazonico Center125.400
Amazonico Center134.700
Manaus Approach119.700
Manaus Tower118.300


NOTICE

Unauthorized use prohibited. See LiveATC.net Terms of Service


Find LiveATC Audio Streams


Airport/ARTCC Code

Frequency
(e.g., 124.400, 128.75)
Site-wide search

Browse LiveATC Feeds
LiveATC Coverage Map
Top 50 LiveATC Feeds
Bad Weather Areas

LiveATC FAQ
Offer a LiveATC Feed
Contact LiveATC.net
Press Inquiries

LiveATC on iPhone
LiveATC on Android

LiveATC Mobile
(Mobile browser)

ATC Audio Archives
Interesting Recordings

LiveATC Forums


Home Page
About LiveATC.net
Make a Donation
LiveATC Bookstore

Terms of Use
Privacy Policy

ATC/Radar Sites
U.S. ARTCC Freqs
Canadian Air Freqs

AIRMETs/SIGMETs

FAA Airport Status
Nat'l Airspace Status
Arrival Demand Charts


Server Software By:
Icecast.org
Liquidsoap

Please make a donation to help us keep growing!